PWSweather.com
Personal Weather Stations
Station Observations
WESTON01
WestonSuperMareGB BS22 8RT

WestonSuperMareGB BS22 8RT

Lat: 51.351508, Lon: -2.933373

Elevation: 15

Station Type: Fine Offset WH1080

http://www.westonweather.co.uk

High Low Average
Temperature 64.7°F18.2°C 56.4°F13.6°C 60.1°F15.6°C
Dew Point 56.3°F13.5°C 48.3°F9.1°C 51.2°F10.7°C
Winds 13.3 mph 21.4 kmh Calm Calm 8.0 mph WNW12.9 kmh WNW
Wind Gusts 23.2 mph37.3 kmh -- 12.0 mph19.3 kmh
Humidity 86% 64% 73%
Pressure 30.02 in1016.6 mb 29.67 in1004.7 mb -
Precipitation 0.00 in0.0 mm - -
Hour Temp Dew Point Humidity Winds Wind Gusts Pressure Precip Precip Rate Daily Precip Total
12:00 AM 60.5°F15.8°C 56.3°F13.5°C 86% 10.1 mph W16.3 kmh W 16.4 mph26.4 kmh 29.67 in1004.7 mb 0.00 in0.0 mm 0.00 in0.0 mm 0.00 in0.0 mm
12:05 AM 60.5°F15.8°C 56.3°F13.5°C 86% 11.3 mph W18.2 kmh W 16.4 mph26.4 kmh 29.67 in1004.7 mb 0.00 in0.0 mm 0.00 in0.0 mm 0.00 in0.0 mm
12:10 AM 60.3°F15.7°C 55.8°F13.2°C 85% 11.3 mph WSW18.2 kmh WSW 16.4 mph26.4 kmh 29.67 in1004.7 mb 0.00 in0.0 mm 0.00 in0.0 mm 0.00 in0.0 mm
12:15 AM 60.3°F15.7°C 55.8°F13.2°C 85% 10.0 mph W16.1 kmh W 14.9 mph24.0 kmh 29.67 in1004.7 mb 0.00 in0.0 mm 0.00 in0.0 mm 0.00 in0.0 mm
12:20 AM 60.5°F15.8°C 56.3°F13.5°C 86% 11.9 mph W19.2 kmh W 17.9 mph28.8 kmh 29.67 in1004.7 mb 0.00 in0.0 mm 0.00 in0.0 mm 0.00 in0.0 mm
12:25 AM 60.5°F15.8°C 56.0°F13.3°C 85% 11.1 mph W17.9 kmh W 17.9 mph28.8 kmh 29.67 in1004.7 mb 0.00 in0.0 mm 0.00 in0.0 mm 0.00 in0.0 mm
12:30 AM 60.5°F15.8°C 56.0°F13.3°C 85% 9.7 mph W15.6 kmh W 17.9 mph28.8 kmh 29.67 in1004.7 mb 0.00 in0.0 mm 0.00 in0.0 mm 0.00 in0.0 mm
12:35 AM 60.5°F15.8°C 56.0°F13.3°C 85% 8.8 mph W14.2 kmh W 14.6 mph23.5 kmh 29.67 in1004.7 mb 0.00 in0.0 mm 0.00 in0.0 mm 0.00 in0.0 mm
12:40 AM 60.5°F15.8°C 56.0°F13.3°C 85% 9.7 mph WNW15.6 kmh WNW 17.0 mph27.4 kmh 29.67 in1004.7 mb 0.00 in0.0 mm 0.00 in0.0 mm 0.00 in0.0 mm
12:45 AM 60.5°F15.8°C 55.7°F13.2°C 84% 10.2 mph WNW16.4 kmh WNW 17.9 mph28.8 kmh 29.67 in1004.7 mb 0.00 in0.0 mm 0.00 in0.0 mm 0.00 in0.0 mm
12:50 AM 60.3°F15.7°C 55.5°F13.1°C 84% 11.2 mph WNW18.0 kmh WNW 17.9 mph28.8 kmh 29.67 in1004.7 mb 0.00 in0.0 mm 0.00 in0.0 mm 0.00 in0.0 mm
12:55 AM 60.3°F15.7°C 55.2°F12.9°C 83% 10.9 mph WNW17.5 kmh WNW 17.0 mph27.4 kmh 29.67 in1004.7 mb 0.00 in0.0 mm 0.00 in0.0 mm 0.00 in0.0 mm
01:00 AM 60.2°F15.7°C 55.0°F12.8°C 83% 11.4 mph NW18.3 kmh NW 17.0 mph27.4 kmh 29.67 in1004.7 mb 0.00 in0.0 mm 0.00 in0.0 mm 0.00 in0.0 mm
01:05 AM 60.2°F15.7°C 55.0°F12.8°C 83% 10.6 mph NW17.1 kmh NW 17.0 mph27.4 kmh 29.67 in1004.7 mb 0.00 in0.0 mm 0.00 in0.0 mm 0.00 in0.0 mm
01:10 AM 60.0°F15.6°C 54.8°F12.7°C 83% 8.7 mph WNW14.0 kmh WNW 10.7 mph17.2 kmh 29.67 in1004.7 mb 0.00 in0.0 mm 0.00 in0.0 mm 0.00 in0.0 mm
01:15 AM 59.8°F15.4°C 54.6°F12.6°C 83% 8.2 mph WNW13.2 kmh WNW 14.6 mph23.5 kmh 29.67 in1004.7 mb 0.00 in0.0 mm 0.00 in0.0 mm 0.00 in0.0 mm
01:20 AM 59.6°F15.3°C 54.5°F12.5°C 83% 9.3 mph NW15.0 kmh NW 15.2 mph24.5 kmh 29.67 in1004.7 mb 0.00 in0.0 mm 0.00 in0.0 mm 0.00 in0.0 mm
01:25 AM 59.5°F15.3°C 54.3°F12.4°C 83% 11.2 mph NW18.0 kmh NW 19.0 mph30.6 kmh 29.67 in1004.7 mb 0.00 in0.0 mm 0.00 in0.0 mm 0.00 in0.0 mm
01:30 AM 59.5°F15.3°C 54.3°F12.4°C 83% 12.5 mph NW20.1 kmh NW 19.0 mph30.6 kmh 29.67 in1004.7 mb 0.00 in0.0 mm 0.00 in0.0 mm 0.00 in0.0 mm
01:35 AM 59.3°F15.2°C 53.8°F12.1°C 82% 11.1 mph NW17.9 kmh NW 17.0 mph27.4 kmh 29.67 in1004.7 mb 0.00 in0.0 mm 0.00 in0.0 mm 0.00 in0.0 mm
01:40 AM 59.3°F15.2°C 53.8°F12.1°C 82% 9.0 mph NW14.5 kmh NW 17.0 mph27.4 kmh 29.70 in1005.8 mb 0.00 in0.0 mm 0.00 in0.0 mm 0.00 in0.0 mm
01:45 AM 58.9°F14.9°C 53.4°F11.9°C 82% 7.7 mph WNW12.4 kmh WNW 11.3 mph18.2 kmh 29.70 in1005.8 mb 0.00 in0.0 mm 0.00 in0.0 mm 0.00 in0.0 mm
01:50 AM 58.9°F14.9°C 53.4°F11.9°C 82% 9.7 mph WNW15.6 kmh WNW 14.6 mph23.5 kmh 29.70 in1005.8 mb 0.00 in0.0 mm 0.00 in0.0 mm 0.00 in0.0 mm
01:55 AM 58.5°F14.7°C 52.7°F11.5°C 81% 9.0 mph WNW14.5 kmh WNW 14.6 mph23.5 kmh 29.70 in1005.8 mb 0.00 in0.0 mm 0.00 in0.0 mm 0.00 in0.0 mm
02:00 AM 58.4°F14.7°C 52.6°F11.4°C 81% 9.8 mph WNW15.8 kmh WNW 19.0 mph30.6 kmh 29.70 in1005.8 mb 0.00 in0.0 mm 0.00 in0.0 mm 0.00 in0.0 mm
02:05 AM 58.2°F14.6°C 52.4°F11.3°C 81% 9.9 mph WNW15.9 kmh WNW 19.0 mph30.6 kmh 29.70 in1005.8 mb 0.00 in0.0 mm 0.00 in0.0 mm 0.00 in0.0 mm
02:10 AM 58.0°F14.4°C 52.2°F11.2°C 81% 8.0 mph WNW12.9 kmh WNW 13.7 mph22.0 kmh 29.70 in1005.8 mb 0.00 in0.0 mm 0.00 in0.0 mm 0.00 in0.0 mm
02:15 AM 57.8°F14.3°C 51.7°F10.9°C 80% 9.8 mph WNW15.8 kmh WNW 16.4 mph26.4 kmh 29.70 in1005.8 mb 0.00 in0.0 mm 0.00 in0.0 mm 0.00 in0.0 mm
02:20 AM 57.7°F14.3°C 51.9°F11.1°C 81% 10.2 mph W16.4 kmh W 16.4 mph26.4 kmh 29.70 in1005.8 mb 0.00 in0.0 mm 0.00 in0.0 mm 0.00 in0.0 mm
02:25 AM 57.5°F14.2°C 51.3°F10.7°C 80% 7.9 mph WNW12.7 kmh WNW 11.6 mph18.7 kmh 29.70 in1005.8 mb 0.00 in0.0 mm 0.00 in0.0 mm 0.00 in0.0 mm
02:30 AM 57.3°F14.1°C 51.2°F10.7°C 80% 7.7 mph WNW12.4 kmh WNW 12.5 mph20.1 kmh 29.70 in1005.8 mb 0.00 in0.0 mm 0.00 in0.0 mm 0.00 in0.0 mm
02:35 AM 57.1°F13.9°C 51.0°F10.6°C 80% 9.6 mph W15.4 kmh W 16.4 mph26.4 kmh 29.70 in1005.8 mb 0.00 in0.0 mm 0.00 in0.0 mm 0.00 in0.0 mm
02:40 AM 56.9°F13.8°C 50.8°F10.4°C 80% 9.1 mph WNW14.6 kmh WNW 16.4 mph26.4 kmh 29.70 in1005.8 mb 0.00 in0.0 mm 0.00 in0.0 mm 0.00 in0.0 mm
02:45 AM 56.8°F13.8°C 50.6°F10.3°C 80% 7.8 mph NW12.6 kmh NW 16.4 mph26.4 kmh 29.70 in1005.8 mb 0.00 in0.0 mm 0.00 in0.0 mm 0.00 in0.0 mm
02:50 AM 56.6°F13.7°C 50.5°F10.3°C 80% 6.9 mph NW11.1 kmh NW 10.7 mph17.2 kmh 29.70 in1005.8 mb 0.00 in0.0 mm 0.00 in0.0 mm 0.00 in0.0 mm
02:55 AM 56.6°F13.7°C 50.5°F10.3°C 80% 6.7 mph WNW10.8 kmh WNW 10.7 mph17.2 kmh 29.70 in1005.8 mb 0.00 in0.0 mm 0.00 in0.0 mm 0.00 in0.0 mm
03:00 AM 56.4°F13.6°C 50.3°F10.2°C 80% 7.8 mph WNW12.6 kmh WNW 17.0 mph27.4 kmh 29.70 in1005.8 mb 0.00 in0.0 mm 0.00 in0.0 mm 0.00 in0.0 mm
03:05 AM 56.6°F13.7°C 50.1°F10.1°C 79% 8.1 mph NW13.0 kmh NW 17.0 mph27.4 kmh 29.70 in1005.8 mb 0.00 in0.0 mm 0.00 in0.0 mm 0.00 in0.0 mm
03:10 AM 56.6°F13.7°C 50.1°F10.1°C 79% 6.1 mph NW9.8 kmh NW 17.0 mph27.4 kmh 29.70 in1005.8 mb 0.00 in0.0 mm 0.00 in0.0 mm 0.00 in0.0 mm
03:15 AM 56.8°F13.8°C 50.3°F10.2°C 79% 6.4 mph NW10.3 kmh NW 12.2 mph19.6 kmh 29.70 in1005.8 mb 0.00 in0.0 mm 0.00 in0.0 mm 0.00 in0.0 mm
03:20 AM 56.8°F13.8°C 50.0°F10.0°C 78% 8.0 mph NW12.9 kmh NW 12.2 mph19.6 kmh 29.70 in1005.8 mb 0.00 in0.0 mm 0.00 in0.0 mm 0.00 in0.0 mm
03:25 AM 56.8°F13.8°C 50.0°F10.0°C 78% 7.6 mph WNW12.2 kmh WNW 10.7 mph17.2 kmh 29.73 in1006.8 mb 0.00 in0.0 mm 0.00 in0.0 mm 0.00 in0.0 mm
03:30 AM 56.9°F13.8°C 50.1°F10.1°C 78% 6.5 mph WNW10.5 kmh WNW 10.7 mph17.2 kmh 29.73 in1006.8 mb 0.00 in0.0 mm 0.00 in0.0 mm 0.00 in0.0 mm
03:35 AM 56.9°F13.8°C 50.1°F10.1°C 78% 7.4 mph WNW11.9 kmh WNW 12.2 mph19.6 kmh 29.73 in1006.8 mb 0.00 in0.0 mm 0.00 in0.0 mm 0.00 in0.0 mm
03:40 AM 56.9°F13.8°C 50.1°F10.1°C 78% 7.6 mph WNW12.2 kmh WNW 12.2 mph19.6 kmh 29.73 in1006.8 mb 0.00 in0.0 mm 0.00 in0.0 mm 0.00 in0.0 mm
03:45 AM 57.1°F13.9°C 50.3°F10.2°C 78% 5.5 mph WNW8.9 kmh WNW 11.3 mph18.2 kmh 29.73 in1006.8 mb 0.00 in0.0 mm 0.00 in0.0 mm 0.00 in0.0 mm
03:50 AM 57.1°F13.9°C 50.3°F10.2°C 78% 7.7 mph NW12.4 kmh NW 13.4 mph21.6 kmh 29.73 in1006.8 mb 0.00 in0.0 mm 0.00 in0.0 mm 0.00 in0.0 mm
03:55 AM 57.1°F13.9°C 50.3°F10.2°C 78% 8.2 mph NW13.2 kmh NW 13.4 mph21.6 kmh 29.73 in1006.8 mb 0.00 in0.0 mm 0.00 in0.0 mm 0.00 in0.0 mm
04:00 AM 57.1°F13.9°C 50.3°F10.2°C 78% 6.0 mph WNW9.7 kmh WNW 10.1 mph16.3 kmh 29.73 in1006.8 mb 0.00 in0.0 mm 0.00 in0.0 mm 0.00 in0.0 mm
04:05 AM 57.3°F14.1°C 50.5°F10.3°C 78% 6.0 mph WNW9.7 kmh WNW 9.8 mph15.8 kmh 29.73 in1006.8 mb 0.00 in0.0 mm 0.00 in0.0 mm 0.00 in0.0 mm
04:10 AM 57.3°F14.1°C 50.1°F10.1°C 77% 6.4 mph WNW10.3 kmh WNW 8.3 mph13.4 kmh 29.73 in1006.8 mb 0.00 in0.0 mm 0.00 in0.0 mm 0.00 in0.0 mm
04:15 AM 57.3°F14.1°C 50.1°F10.1°C 77% 5.7 mph WNW9.2 kmh WNW 8.3 mph13.4 kmh 29.73 in1006.8 mb 0.00 in0.0 mm 0.00 in0.0 mm 0.00 in0.0 mm
04:20 AM 57.3°F14.1°C 50.1°F10.1°C 77% 5.0 mph NW8.0 kmh NW 9.2 mph14.8 kmh 29.73 in1006.8 mb 0.00 in0.0 mm 0.00 in0.0 mm 0.00 in0.0 mm
04:25 AM 57.3°F14.1°C 50.1°F10.1°C 77% 6.5 mph WNW10.5 kmh WNW 9.2 mph14.8 kmh 29.73 in1006.8 mb 0.00 in0.0 mm 0.00 in0.0 mm 0.00 in0.0 mm
04:35 AM 57.3°F14.1°C 50.1°F10.1°C 77% 8.0 mph NW12.9 kmh NW 14.0 mph22.5 kmh 29.73 in1006.8 mb 0.00 in0.0 mm 0.00 in0.0 mm 0.00 in0.0 mm
04:40 AM 57.3°F14.1°C 50.5°F10.3°C 78% 7.2 mph NW11.6 kmh NW 12.8 mph20.6 kmh 29.73 in1006.8 mb 0.00 in0.0 mm 0.00 in0.0 mm 0.00 in0.0 mm
04:45 AM 57.3°F14.1°C 50.5°F10.3°C 78% 7.8 mph NW12.6 kmh NW 12.8 mph20.6 kmh 29.73 in1006.8 mb 0.00 in0.0 mm 0.00 in0.0 mm 0.00 in0.0 mm
04:50 AM 57.3°F14.1°C 50.5°F10.3°C 78% 7.7 mph WNW12.4 kmh WNW 11.3 mph18.2 kmh 29.73 in1006.8 mb 0.00 in0.0 mm 0.00 in0.0 mm 0.00 in0.0 mm
04:55 AM 57.3°F14.1°C 50.5°F10.3°C 78% 7.4 mph WNW11.9 kmh WNW 10.7 mph17.2 kmh 29.73 in1006.8 mb 0.00 in0.0 mm 0.00 in0.0 mm 0.00 in0.0 mm
05:00 AM 57.3°F14.1°C 50.5°F10.3°C 78% 7.0 mph WNW11.3 kmh WNW 10.7 mph17.2 kmh 29.73 in1006.8 mb 0.00 in0.0 mm 0.00 in0.0 mm 0.00 in0.0 mm
05:05 AM 57.3°F14.1°C 50.5°F10.3°C 78% 6.9 mph WNW11.1 kmh WNW 9.8 mph15.8 kmh 29.73 in1006.8 mb 0.00 in0.0 mm 0.00 in0.0 mm 0.00 in0.0 mm
05:10 AM 57.3°F14.1°C 50.5°F10.3°C 78% 7.1 mph NW11.4 kmh NW 10.1 mph16.3 kmh 29.75 in1007.5 mb 0.00 in0.0 mm 0.00 in0.0 mm 0.00 in0.0 mm
05:15 AM 57.3°F14.1°C 50.5°F10.3°C 78% 6.8 mph NW10.9 kmh NW 10.1 mph16.3 kmh 29.75 in1007.5 mb 0.00 in0.0 mm 0.00 in0.0 mm 0.00 in0.0 mm
05:20 AM 57.3°F14.1°C 50.1°F10.1°C 77% 6.1 mph WNW9.8 kmh WNW 10.1 mph16.3 kmh 29.75 in1007.5 mb 0.00 in0.0 mm 0.00 in0.0 mm 0.00 in0.0 mm
05:25 AM 57.3°F14.1°C 50.1°F10.1°C 77% 5.6 mph WNW9.0 kmh WNW 10.1 mph16.3 kmh 29.75 in1007.5 mb 0.00 in0.0 mm 0.00 in0.0 mm 0.00 in0.0 mm
05:30 AM 57.3°F14.1°C 50.5°F10.3°C 78% 6.1 mph WNW9.8 kmh WNW 10.1 mph16.3 kmh 29.75 in1007.5 mb 0.00 in0.0 mm 0.00 in0.0 mm 0.00 in0.0 mm
05:35 AM 57.3°F14.1°C 50.5°F10.3°C 78% 6.7 mph WNW10.8 kmh WNW 10.4 mph16.7 kmh 29.75 in1007.5 mb 0.00 in0.0 mm 0.00 in0.0 mm 0.00 in0.0 mm
05:40 AM 57.5°F14.2°C 50.3°F10.2°C 77% 8.1 mph WNW13.0 kmh WNW 10.4 mph16.7 kmh 29.75 in1007.5 mb 0.00 in0.0 mm 0.00 in0.0 mm 0.00 in0.0 mm
05:45 AM 57.5°F14.2°C 50.3°F10.2°C 77% 7.5 mph WNW12.1 kmh WNW 10.1 mph16.3 kmh 29.75 in1007.5 mb 0.00 in0.0 mm 0.00 in0.0 mm 0.00 in0.0 mm
05:50 AM 57.5°F14.2°C 50.3°F10.2°C 77% 6.4 mph NW10.3 kmh NW 10.1 mph16.3 kmh 29.75 in1007.5 mb 0.00 in0.0 mm 0.00 in0.0 mm 0.00 in0.0 mm
05:55 AM 57.5°F14.2°C 50.7°F10.4°C 78% 6.0 mph WNW9.7 kmh WNW 8.6 mph13.8 kmh 29.75 in1007.5 mb 0.00 in0.0 mm 0.00 in0.0 mm 0.00 in0.0 mm
06:00 AM 57.5°F14.2°C 50.7°F10.4°C 78% 5.6 mph WNW9.0 kmh WNW 8.6 mph13.8 kmh 29.75 in1007.5 mb 0.00 in0.0 mm 0.00 in0.0 mm 0.00 in0.0 mm
06:05 AM 57.7°F14.3°C 50.8°F10.4°C 78% 6.3 mph NW10.1 kmh NW 8.3 mph13.4 kmh 29.75 in1007.5 mb 0.00 in0.0 mm 0.00 in0.0 mm 0.00 in0.0 mm
06:10 AM 57.7°F14.3°C 50.8°F10.4°C 78% 8.2 mph NW13.2 kmh NW 14.6 mph23.5 kmh 29.75 in1007.5 mb 0.00 in0.0 mm 0.00 in0.0 mm 0.00 in0.0 mm
06:15 AM 57.8°F14.3°C 51.0°F10.6°C 78% 8.6 mph NW13.8 kmh NW 14.6 mph23.5 kmh 29.75 in1007.5 mb 0.00 in0.0 mm 0.00 in0.0 mm 0.00 in0.0 mm
06:20 AM 57.8°F14.3°C 51.0°F10.6°C 78% 9.8 mph WNW15.8 kmh WNW 14.6 mph23.5 kmh 29.75 in1007.5 mb 0.00 in0.0 mm 0.00 in0.0 mm 0.00 in0.0 mm
06:25 AM 57.7°F14.3°C 50.8°F10.4°C 78% 12.3 mph W19.8 kmh W 17.0 mph27.4 kmh 29.78 in1008.5 mb 0.00 in0.0 mm 0.00 in0.0 mm 0.00 in0.0 mm
06:30 AM 57.3°F14.1°C 50.8°F10.4°C 79% 12.0 mph W19.3 kmh W 17.0 mph27.4 kmh 29.78 in1008.5 mb 0.00 in0.0 mm 0.00 in0.0 mm 0.00 in0.0 mm
06:35 AM 57.1°F13.9°C 50.7°F10.4°C 79% 8.5 mph WNW13.7 kmh WNW 14.0 mph22.5 kmh 29.78 in1008.5 mb 0.00 in0.0 mm 0.00 in0.0 mm 0.00 in0.0 mm
06:40 AM 57.1°F13.9°C 50.7°F10.4°C 79% 5.8 mph WNW9.3 kmh WNW 9.5 mph15.3 kmh 29.78 in1008.5 mb 0.00 in0.0 mm 0.00 in0.0 mm 0.00 in0.0 mm
06:45 AM 57.1°F13.9°C 51.0°F10.6°C 80% 6.2 mph WNW10.0 kmh WNW 9.8 mph15.8 kmh 29.78 in1008.5 mb 0.00 in0.0 mm 0.00 in0.0 mm 0.00 in0.0 mm
06:50 AM 57.3°F14.1°C 51.2°F10.7°C 80% 7.2 mph W11.6 kmh W 14.3 mph23.0 kmh 29.78 in1008.5 mb 0.00 in0.0 mm 0.00 in0.0 mm 0.00 in0.0 mm
06:55 AM 57.3°F14.1°C 51.2°F10.7°C 80% 7.9 mph W12.7 kmh W 14.3 mph23.0 kmh 29.78 in1008.5 mb 0.00 in0.0 mm 0.00 in0.0 mm 0.00 in0.0 mm
07:00 AM 57.3°F14.1°C 51.5°F10.8°C 81% 8.3 mph WNW13.4 kmh WNW 12.8 mph20.6 kmh 29.78 in1008.5 mb 0.00 in0.0 mm 0.00 in0.0 mm 0.00 in0.0 mm
07:05 AM 57.3°F14.1°C 51.5°F10.8°C 81% 7.4 mph WNW11.9 kmh WNW 10.4 mph16.7 kmh 29.78 in1008.5 mb 0.00 in0.0 mm 0.00 in0.0 mm 0.00 in0.0 mm
07:10 AM 57.5°F14.2°C 52.0°F11.1°C 82% 5.8 mph WNW9.3 kmh WNW 8.0 mph12.9 kmh 29.78 in1008.5 mb 0.00 in0.0 mm 0.00 in0.0 mm 0.00 in0.0 mm
07:15 AM 57.7°F14.3°C 52.2°F11.2°C 82% 5.7 mph W9.2 kmh W 8.6 mph13.8 kmh 29.78 in1008.5 mb 0.00 in0.0 mm 0.00 in0.0 mm 0.00 in0.0 mm
07:20 AM 57.7°F14.3°C 52.2°F11.2°C 82% 5.4 mph W8.7 kmh W 8.6 mph13.8 kmh 29.78 in1008.5 mb 0.00 in0.0 mm 0.00 in0.0 mm 0.00 in0.0 mm
07:25 AM 58.0°F14.4°C 52.2°F11.2°C 81% 5.1 mph W8.2 kmh W 9.8 mph15.8 kmh 29.78 in1008.5 mb 0.00 in0.0 mm 0.00 in0.0 mm 0.00 in0.0 mm
07:30 AM 58.0°F14.4°C 52.2°F11.2°C 81% 6.7 mph W10.8 kmh W 10.1 mph16.3 kmh 29.78 in1008.5 mb 0.00 in0.0 mm 0.00 in0.0 mm 0.00 in0.0 mm
07:35 AM 58.2°F14.6°C 52.0°F11.1°C 80% 8.2 mph W13.2 kmh W 14.9 mph24.0 kmh 29.78 in1008.5 mb 0.00 in0.0 mm 0.00 in0.0 mm 0.00 in0.0 mm
07:40 AM 58.2°F14.6°C 52.0°F11.1°C 80% 9.3 mph W15.0 kmh W 14.9 mph24.0 kmh 29.81 in1009.5 mb 0.00 in0.0 mm 0.00 in0.0 mm 0.00 in0.0 mm
07:45 AM 58.5°F14.7°C 52.1°F11.2°C 79% 9.7 mph WNW15.6 kmh WNW 11.9 mph19.2 kmh 29.81 in1009.5 mb 0.00 in0.0 mm 0.00 in0.0 mm 0.00 in0.0 mm
07:50 AM 58.7°F14.8°C 52.2°F11.2°C 79% 10.4 mph WNW16.7 kmh WNW 14.0 mph22.5 kmh 29.81 in1009.5 mb 0.00 in0.0 mm 0.00 in0.0 mm 0.00 in0.0 mm
07:55 AM 58.9°F14.9°C 52.1°F11.2°C 78% 9.5 mph WNW15.3 kmh WNW 14.0 mph22.5 kmh 29.81 in1009.5 mb 0.00 in0.0 mm 0.00 in0.0 mm 0.00 in0.0 mm
08:00 AM 59.1°F15.1°C 51.9°F11.1°C 77% 8.4 mph W13.5 kmh W 14.6 mph23.5 kmh 29.81 in1009.5 mb 0.00 in0.0 mm 0.00 in0.0 mm 0.00 in0.0 mm
08:05 AM 59.5°F15.3°C 51.9°F11.1°C 76% 9.5 mph W15.3 kmh W 14.6 mph23.5 kmh 29.81 in1009.5 mb 0.00 in0.0 mm 0.00 in0.0 mm 0.00 in0.0 mm
08:10 AM 59.5°F15.3°C 51.9°F11.1°C 76% 9.0 mph W14.5 kmh W 13.7 mph22.0 kmh 29.81 in1009.5 mb 0.00 in0.0 mm 0.00 in0.0 mm 0.00 in0.0 mm
08:15 AM 59.6°F15.3°C 51.7°F10.9°C 75% 7.3 mph W11.7 kmh W 13.7 mph22.0 kmh 29.81 in1009.5 mb 0.00 in0.0 mm 0.00 in0.0 mm 0.00 in0.0 mm
08:20 AM 60.0°F15.6°C 52.0°F11.1°C 75% 7.6 mph W12.2 kmh W 15.8 mph25.4 kmh 29.81 in1009.5 mb 0.00 in0.0 mm 0.00 in0.0 mm 0.00 in0.0 mm
08:25 AM 60.3°F15.7°C 52.0°F11.1°C 74% 10.2 mph W16.4 kmh W 16.7 mph26.9 kmh 29.81 in1009.5 mb 0.00 in0.0 mm 0.00 in0.0 mm 0.00 in0.0 mm
08:30 AM 60.5°F15.8°C 52.2°F11.2°C 74% 9.7 mph W15.6 kmh W 16.7 mph26.9 kmh 29.81 in1009.5 mb 0.00 in0.0 mm 0.00 in0.0 mm 0.00 in0.0 mm
08:35 AM 60.5°F15.8°C 51.8°F11.0°C 73% 8.4 mph W13.5 kmh W 13.1 mph21.1 kmh 29.81 in1009.5 mb 0.00 in0.0 mm 0.00 in0.0 mm 0.00 in0.0 mm
08:40 AM 60.3°F15.7°C 51.7°F10.9°C 73% 10.4 mph W16.7 kmh W 17.6 mph28.3 kmh 29.81 in1009.5 mb 0.00 in0.0 mm 0.00 in0.0 mm 0.00 in0.0 mm
08:45 AM 60.2°F15.7°C 51.5°F10.8°C 73% 11.9 mph WNW19.2 kmh WNW 20.5 mph33.0 kmh 29.81 in1009.5 mb 0.00 in0.0 mm 0.00 in0.0 mm 0.00 in0.0 mm
08:50 AM 60.2°F15.7°C 51.1°F10.6°C 72% 10.7 mph WNW17.2 kmh WNW 20.5 mph33.0 kmh 29.81 in1009.5 mb 0.00 in0.0 mm 0.00 in0.0 mm 0.00 in0.0 mm
08:55 AM 60.2°F15.7°C 51.1°F10.6°C 72% 8.8 mph WNW14.2 kmh WNW 20.5 mph33.0 kmh 29.81 in1009.5 mb 0.00 in0.0 mm 0.00 in0.0 mm 0.00 in0.0 mm
09:00 AM 60.3°F15.7°C 51.3°F10.7°C 72% 8.3 mph NW13.4 kmh NW 13.4 mph21.6 kmh 29.81 in1009.5 mb 0.00 in0.0 mm 0.00 in0.0 mm 0.00 in0.0 mm
09:05 AM 60.2°F15.7°C 51.1°F10.6°C 72% 10.6 mph NW17.1 kmh NW 18.7 mph30.1 kmh 29.81 in1009.5 mb 0.00 in0.0 mm 0.00 in0.0 mm 0.00 in0.0 mm
09:10 AM 60.2°F15.7°C 51.1°F10.6°C 72% 12.4 mph WNW20.0 kmh WNW 19.3 mph31.1 kmh 29.84 in1010.5 mb 0.00 in0.0 mm 0.00 in0.0 mm 0.00 in0.0 mm
09:15 AM 60.0°F15.6°C 50.9°F10.5°C 72% 10.1 mph WNW16.3 kmh WNW 19.3 mph31.1 kmh 29.84 in1010.5 mb 0.00 in0.0 mm 0.00 in0.0 mm 0.00 in0.0 mm
09:20 AM 60.3°F15.7°C 51.3°F10.7°C 72% 7.5 mph WNW12.1 kmh WNW 10.4 mph16.7 kmh 29.84 in1010.5 mb 0.00 in0.0 mm 0.00 in0.0 mm 0.00 in0.0 mm
09:25 AM 60.7°F15.9°C 51.6°F10.9°C 72% 8.0 mph W12.9 kmh W 10.4 mph16.7 kmh 29.84 in1010.5 mb 0.00 in0.0 mm 0.00 in0.0 mm 0.00 in0.0 mm
09:30 AM 61.1°F16.2°C 52.0°F11.1°C 72% 10.9 mph W17.5 kmh W 20.5 mph33.0 kmh 29.84 in1010.5 mb 0.00 in0.0 mm 0.00 in0.0 mm 0.00 in0.0 mm
09:35 AM 61.3°F16.3°C 51.8°F11.0°C 71% 12.7 mph W20.4 kmh W 20.5 mph33.0 kmh 29.84 in1010.5 mb 0.00 in0.0 mm 0.00 in0.0 mm 0.00 in0.0 mm
09:40 AM 61.1°F16.2°C 51.6°F10.9°C 71% 13.3 mph W21.4 kmh W 23.2 mph37.3 kmh 29.84 in1010.5 mb 0.00 in0.0 mm 0.00 in0.0 mm 0.00 in0.0 mm
09:45 AM 60.9°F16.1°C 51.4°F10.8°C 71% 13.1 mph WNW21.1 kmh WNW 23.2 mph37.3 kmh 29.84 in1010.5 mb 0.00 in0.0 mm 0.00 in0.0 mm 0.00 in0.0 mm
09:50 AM 60.9°F16.1°C 51.4°F10.8°C 71% 11.0 mph WNW17.7 kmh WNW 17.6 mph28.3 kmh 29.84 in1010.5 mb 0.00 in0.0 mm 0.00 in0.0 mm 0.00 in0.0 mm
09:55 AM 61.1°F16.2°C 51.6°F10.9°C 71% 9.8 mph WNW15.8 kmh WNW 14.3 mph23.0 kmh 29.84 in1010.5 mb 0.00 in0.0 mm 0.00 in0.0 mm 0.00 in0.0 mm
10:00 AM 61.3°F16.3°C 51.8°F11.0°C 71% 10.5 mph NW16.9 kmh NW 17.0 mph27.4 kmh 29.84 in1010.5 mb 0.00 in0.0 mm 0.00 in0.0 mm 0.00 in0.0 mm
10:05 AM 61.4°F16.3°C 51.9°F11.1°C 71% 9.2 mph NW14.8 kmh NW 17.0 mph27.4 kmh 29.84 in1010.5 mb 0.00 in0.0 mm 0.00 in0.0 mm 0.00 in0.0 mm
10:10 AM 61.4°F16.3°C 51.9°F11.1°C 71% 8.2 mph NNW13.2 kmh NNW 14.0 mph22.5 kmh 29.84 in1010.5 mb 0.00 in0.0 mm 0.00 in0.0 mm 0.00 in0.0 mm
10:15 AM 61.6°F16.4°C 52.1°F11.2°C 71% 9.1 mph NW14.6 kmh NW 13.4 mph21.6 kmh 29.84 in1010.5 mb 0.00 in0.0 mm 0.00 in0.0 mm 0.00 in0.0 mm
10:20 AM 61.6°F16.4°C 52.1°F11.2°C 71% 10.0 mph NW16.1 kmh NW 16.7 mph26.9 kmh 29.84 in1010.5 mb 0.00 in0.0 mm 0.00 in0.0 mm 0.00 in0.0 mm
10:25 AM 61.6°F16.4°C 51.7°F10.9°C 70% 10.0 mph NW16.1 kmh NW 19.0 mph30.6 kmh 29.87 in1011.5 mb 0.00 in0.0 mm 0.00 in0.0 mm 0.00 in0.0 mm
10:30 AM 61.6°F16.4°C 51.7°F10.9°C 70% 11.0 mph WSW17.7 kmh WSW 19.0 mph30.6 kmh 29.87 in1011.5 mb 0.00 in0.0 mm 0.00 in0.0 mm 0.00 in0.0 mm
10:35 AM 61.8°F16.6°C 51.9°F11.1°C 70% 10.6 mph W17.1 kmh W 19.0 mph30.6 kmh 29.87 in1011.5 mb 0.00 in0.0 mm 0.00 in0.0 mm 0.00 in0.0 mm
10:40 AM 62.0°F16.7°C 52.1°F11.2°C 70% 10.4 mph W16.7 kmh W 17.0 mph27.4 kmh 29.87 in1011.5 mb 0.00 in0.0 mm 0.00 in0.0 mm 0.00 in0.0 mm
10:45 AM 62.3°F16.8°C 52.4°F11.3°C 70% 9.7 mph W15.6 kmh W 13.1 mph21.1 kmh 29.87 in1011.5 mb 0.00 in0.0 mm 0.00 in0.0 mm 0.00 in0.0 mm
10:50 AM 62.7°F17.1°C 52.4°F11.3°C 69% 9.7 mph W15.6 kmh W 17.0 mph27.4 kmh 29.87 in1011.5 mb 0.00 in0.0 mm 0.00 in0.0 mm 0.00 in0.0 mm
10:55 AM 62.7°F17.1°C 52.4°F11.3°C 69% 10.0 mph W16.1 kmh W 17.0 mph27.4 kmh 29.87 in1011.5 mb 0.00 in0.0 mm 0.00 in0.0 mm 0.00 in0.0 mm
11:00 AM 62.5°F16.9°C 51.8°F11.0°C 68% 9.6 mph WNW15.4 kmh WNW 17.0 mph27.4 kmh 29.87 in1011.5 mb 0.00 in0.0 mm 0.00 in0.0 mm 0.00 in0.0 mm
11:05 AM 62.7°F17.1°C 52.4°F11.3°C 69% 10.4 mph W16.7 kmh W 18.1 mph29.1 kmh 29.87 in1011.5 mb 0.00 in0.0 mm 0.00 in0.0 mm 0.00 in0.0 mm
11:10 AM 62.9°F17.2°C 52.1°F11.2°C 68% 10.7 mph WSW17.2 kmh WSW 18.1 mph29.1 kmh 29.87 in1011.5 mb 0.00 in0.0 mm 0.00 in0.0 mm 0.00 in0.0 mm
11:15 AM 63.6°F17.6°C 52.8°F11.6°C 68% 7.8 mph W12.6 kmh W 14.6 mph23.5 kmh 29.87 in1011.5 mb 0.00 in0.0 mm 0.00 in0.0 mm 0.00 in0.0 mm
11:20 AM 63.6°F17.6°C 52.8°F11.6°C 68% 8.8 mph W14.2 kmh W 19.6 mph31.5 kmh 29.87 in1011.5 mb 0.00 in0.0 mm 0.00 in0.0 mm 0.00 in0.0 mm
11:25 AM 63.4°F17.4°C 52.7°F11.5°C 68% 10.9 mph W17.5 kmh W 19.6 mph31.5 kmh 29.87 in1011.5 mb 0.00 in0.0 mm 0.00 in0.0 mm 0.00 in0.0 mm
11:30 AM 62.9°F17.2°C 52.1°F11.2°C 68% 12.1 mph WNW19.5 kmh WNW 17.0 mph27.4 kmh 29.87 in1011.5 mb 0.00 in0.0 mm 0.00 in0.0 mm 0.00 in0.0 mm
11:35 AM 62.9°F17.2°C 52.1°F11.2°C 68% 11.2 mph W18.0 kmh W 17.0 mph27.4 kmh 29.87 in1011.5 mb 0.00 in0.0 mm 0.00 in0.0 mm 0.00 in0.0 mm
11:40 AM 63.0°F17.2°C 52.7°F11.5°C 69% 10.4 mph W16.7 kmh W 16.4 mph26.4 kmh 29.90 in1012.5 mb 0.00 in0.0 mm 0.00 in0.0 mm 0.00 in0.0 mm
11:45 AM 63.2°F17.3°C 52.9°F11.6°C 69% 9.0 mph W14.5 kmh W 15.8 mph25.4 kmh 29.90 in1012.5 mb 0.00 in0.0 mm 0.00 in0.0 mm 0.00 in0.0 mm
11:50 AM 63.2°F17.3°C 52.9°F11.6°C 69% 8.5 mph W13.7 kmh W 14.6 mph23.5 kmh 29.90 in1012.5 mb 0.00 in0.0 mm 0.00 in0.0 mm 0.00 in0.0 mm
11:55 AM 63.8°F17.7°C 53.0°F11.7°C 68% 9.8 mph W15.8 kmh W 14.6 mph23.5 kmh 29.90 in1012.5 mb 0.00 in0.0 mm 0.00 in0.0 mm 0.00 in0.0 mm
12:00 PM 63.6°F17.6°C 52.4°F11.3°C 67% 12.8 mph WNW20.6 kmh WNW 19.6 mph31.5 kmh 29.90 in1012.5 mb 0.00 in0.0 mm 0.00 in0.0 mm 0.00 in0.0 mm
12:05 PM 63.2°F17.3°C 52.1°F11.2°C 67% 12.8 mph WNW20.6 kmh WNW 19.6 mph31.5 kmh 29.90 in1012.5 mb 0.00 in0.0 mm 0.00 in0.0 mm 0.00 in0.0 mm
12:10 PM 63.0°F17.2°C 51.9°F11.1°C 67% 10.6 mph WNW17.1 kmh WNW 14.3 mph23.0 kmh 29.90 in1012.5 mb 0.00 in0.0 mm 0.00 in0.0 mm 0.00 in0.0 mm
12:15 PM 63.4°F17.4°C 52.3°F11.3°C 67% 8.2 mph WNW13.2 kmh WNW 10.4 mph16.7 kmh 29.90 in1012.5 mb 0.00 in0.0 mm 0.00 in0.0 mm 0.00 in0.0 mm
12:20 PM 63.4°F17.4°C 52.3°F11.3°C 67% 9.5 mph WNW15.3 kmh WNW 14.6 mph23.5 kmh 29.90 in1012.5 mb 0.00 in0.0 mm 0.00 in0.0 mm 0.00 in0.0 mm
12:25 PM 64.0°F17.8°C 52.8°F11.6°C 67% 11.6 mph W18.7 kmh W 17.6 mph28.3 kmh 29.90 in1012.5 mb 0.00 in0.0 mm 0.00 in0.0 mm 0.00 in0.0 mm
12:30 PM 64.1°F17.8°C 52.5°F11.4°C 66% 10.9 mph WNW17.5 kmh WNW 17.6 mph28.3 kmh 29.90 in1012.5 mb 0.00 in0.0 mm 0.00 in0.0 mm 0.00 in0.0 mm
12:35 PM 64.3°F17.9°C 52.7°F11.5°C 66% 11.4 mph W18.3 kmh W 19.3 mph31.1 kmh 29.90 in1012.5 mb 0.00 in0.0 mm 0.00 in0.0 mm 0.00 in0.0 mm
12:40 PM 64.3°F17.9°C 52.3°F11.3°C 65% 10.9 mph W17.5 kmh W 19.3 mph31.1 kmh 29.90 in1012.5 mb 0.00 in0.0 mm 0.00 in0.0 mm 0.00 in0.0 mm
12:45 PM 64.3°F17.9°C 52.7°F11.5°C 66% 8.6 mph WNW13.8 kmh WNW 13.1 mph21.1 kmh 29.90 in1012.5 mb 0.00 in0.0 mm 0.00 in0.0 mm 0.00 in0.0 mm
12:50 PM 64.1°F17.8°C 52.1°F11.2°C 65% 10.8 mph WNW17.4 kmh WNW 18.4 mph29.6 kmh 29.90 in1012.5 mb 0.00 in0.0 mm 0.00 in0.0 mm 0.00 in0.0 mm
12:55 PM 64.3°F17.9°C 52.3°F11.3°C 65% 12.0 mph WNW19.3 kmh WNW 18.4 mph29.6 kmh 29.90 in1012.5 mb 0.00 in0.0 mm 0.00 in0.0 mm 0.00 in0.0 mm
01:00 PM 64.3°F17.9°C 52.3°F11.3°C 65% 12.6 mph W20.3 kmh W 16.1 mph25.9 kmh 29.90 in1012.5 mb 0.00 in0.0 mm 0.00 in0.0 mm 0.00 in0.0 mm
01:05 PM 64.7°F18.2°C 52.6°F11.4°C 65% 11.9 mph W19.2 kmh W 16.1 mph25.9 kmh 29.90 in1012.5 mb 0.00 in0.0 mm 0.00 in0.0 mm 0.00 in0.0 mm
01:10 PM 64.7°F18.2°C 52.6°F11.4°C 65% 10.2 mph W16.4 kmh W 16.1 mph25.9 kmh 29.90 in1012.5 mb 0.00 in0.0 mm 0.00 in0.0 mm 0.00 in0.0 mm
01:15 PM 64.7°F18.2°C 52.2°F11.2°C 64% 11.6 mph W18.7 kmh W 17.0 mph27.4 kmh 29.90 in1012.5 mb 0.00 in0.0 mm 0.00 in0.0 mm 0.00 in0.0 mm
01:20 PM 64.5°F18.1°C 52.5°F11.4°C 65% 13.3 mph W21.4 kmh W 17.9 mph28.8 kmh 29.90 in1012.5 mb 0.00 in0.0 mm 0.00 in0.0 mm 0.00 in0.0 mm
01:25 PM 64.1°F17.8°C 51.7°F10.9°C 64% 12.2 mph WNW19.6 kmh WNW 17.9 mph28.8 kmh 29.90 in1012.5 mb 0.00 in0.0 mm 0.00 in0.0 mm 0.00 in0.0 mm
01:30 PM 64.0°F17.8°C 51.5°F10.8°C 64% 11.9 mph WNW19.2 kmh WNW 17.9 mph28.8 kmh 29.90 in1012.5 mb 0.00 in0.0 mm 0.00 in0.0 mm 0.00 in0.0 mm
01:35 PM 64.0°F17.8°C 51.9°F11.1°C 65% 11.5 mph W18.5 kmh W 17.6 mph28.3 kmh 29.90 in1012.5 mb 0.00 in0.0 mm 0.00 in0.0 mm 0.00 in0.0 mm
01:40 PM 64.0°F17.8°C 51.5°F10.8°C 64% 9.5 mph W15.3 kmh W 12.8 mph20.6 kmh 29.90 in1012.5 mb 0.00 in0.0 mm 0.00 in0.0 mm 0.00 in0.0 mm
01:45 PM 64.0°F17.8°C 51.5°F10.8°C 64% 10.0 mph W16.1 kmh W 17.0 mph27.4 kmh 29.90 in1012.5 mb 0.00 in0.0 mm 0.00 in0.0 mm 0.00 in0.0 mm
01:50 PM 64.0°F17.8°C 51.9°F11.1°C 65% 10.9 mph W17.5 kmh W 17.0 mph27.4 kmh 29.90 in1012.5 mb 0.00 in0.0 mm 0.00 in0.0 mm 0.00 in0.0 mm
01:55 PM 63.6°F17.6°C 51.2°F10.7°C 64% 11.1 mph W17.9 kmh W 14.0 mph22.5 kmh 29.96 in1014.6 mb 0.00 in0.0 mm 0.00 in0.0 mm 0.00 in0.0 mm
02:00 PM 63.4°F17.4°C 51.0°F10.6°C 64% 9.9 mph WSW15.9 kmh WSW 14.0 mph22.5 kmh 29.96 in1014.6 mb 0.00 in0.0 mm 0.00 in0.0 mm 0.00 in0.0 mm
02:05 PM 63.4°F17.4°C 51.0°F10.6°C 64% 9.4 mph W15.1 kmh W 14.9 mph24.0 kmh 29.96 in1014.6 mb 0.00 in0.0 mm 0.00 in0.0 mm 0.00 in0.0 mm
02:10 PM 63.2°F17.3°C 50.8°F10.4°C 64% 8.9 mph W14.3 kmh W 14.9 mph24.0 kmh 29.96 in1014.6 mb 0.00 in0.0 mm 0.00 in0.0 mm 0.00 in0.0 mm
02:15 PM 63.0°F17.2°C 51.1°F10.6°C 65% 10.1 mph NW16.3 kmh NW 14.6 mph23.5 kmh 29.96 in1014.6 mb 0.00 in0.0 mm 0.00 in0.0 mm 0.00 in0.0 mm
02:20 PM 62.9°F17.2°C 50.9°F10.5°C 65% 10.8 mph WNW17.4 kmh WNW 15.2 mph24.5 kmh 29.96 in1014.6 mb 0.00 in0.0 mm 0.00 in0.0 mm 0.00 in0.0 mm
02:25 PM 62.9°F17.2°C 50.9°F10.5°C 65% 11.5 mph W18.5 kmh W 17.3 mph27.8 kmh 29.96 in1014.6 mb 0.00 in0.0 mm 0.00 in0.0 mm 0.00 in0.0 mm
02:30 PM 62.9°F17.2°C 50.9°F10.5°C 65% 11.7 mph W18.8 kmh W 20.5 mph33.0 kmh 29.96 in1014.6 mb 0.00 in0.0 mm 0.00 in0.0 mm 0.00 in0.0 mm
02:35 PM 62.9°F17.2°C 50.9°F10.5°C 65% 11.1 mph WNW17.9 kmh WNW 20.5 mph33.0 kmh 29.96 in1014.6 mb 0.00 in0.0 mm 0.00 in0.0 mm 0.00 in0.0 mm
02:40 PM 62.9°F17.2°C 51.3°F10.7°C 66% 9.4 mph WNW15.1 kmh WNW 13.1 mph21.1 kmh 29.96 in1014.6 mb 0.00 in0.0 mm 0.00 in0.0 mm 0.00 in0.0 mm
02:45 PM 62.9°F17.2°C 50.9°F10.5°C 65% 9.3 mph WNW15.0 kmh WNW 17.6 mph28.3 kmh 29.96 in1014.6 mb 0.00 in0.0 mm 0.00 in0.0 mm 0.00 in0.0 mm
02:50 PM 62.9°F17.2°C 50.9°F10.5°C 65% 10.6 mph WNW17.1 kmh WNW 17.6 mph28.3 kmh 29.96 in1014.6 mb 0.00 in0.0 mm 0.00 in0.0 mm 0.00 in0.0 mm
02:55 PM 63.0°F17.2°C 51.1°F10.6°C 65% 9.3 mph WNW15.0 kmh WNW 14.9 mph24.0 kmh 29.96 in1014.6 mb 0.00 in0.0 mm 0.00 in0.0 mm 0.00 in0.0 mm
03:00 PM 62.9°F17.2°C 50.9°F10.5°C 65% 8.5 mph W13.7 kmh W 16.1 mph25.9 kmh 29.96 in1014.6 mb 0.00 in0.0 mm 0.00 in0.0 mm 0.00 in0.0 mm
03:05 PM 62.9°F17.2°C 50.9°F10.5°C 65% 8.9 mph W14.3 kmh W 16.1 mph25.9 kmh 29.96 in1014.6 mb 0.00 in0.0 mm 0.00 in0.0 mm 0.00 in0.0 mm
03:10 PM 62.9°F17.2°C 50.9°F10.5°C 65% 9.1 mph WNW14.6 kmh WNW 13.4 mph21.6 kmh 29.96 in1014.6 mb 0.00 in0.0 mm 0.00 in0.0 mm 0.00 in0.0 mm
03:15 PM 62.5°F16.9°C 50.2°F10.1°C 64% 8.8 mph WNW14.2 kmh WNW 13.4 mph21.6 kmh 29.96 in1014.6 mb 0.00 in0.0 mm 0.00 in0.0 mm 0.00 in0.0 mm
03:20 PM 62.5°F16.9°C 50.2°F10.1°C 64% 8.2 mph W13.2 kmh W 17.0 mph27.4 kmh 29.96 in1014.6 mb 0.00 in0.0 mm 0.00 in0.0 mm 0.00 in0.0 mm
03:25 PM 62.3°F16.8°C 50.4°F10.2°C 65% 9.4 mph WNW15.1 kmh WNW 17.0 mph27.4 kmh 29.96 in1014.6 mb 0.00 in0.0 mm 0.00 in0.0 mm 0.00 in0.0 mm
03:30 PM 62.3°F16.8°C 50.4°F10.2°C 65% 9.2 mph WNW14.8 kmh WNW 14.6 mph23.5 kmh 29.96 in1014.6 mb 0.00 in0.0 mm 0.00 in0.0 mm 0.00 in0.0 mm
03:35 PM 62.3°F16.8°C 50.4°F10.2°C 65% 8.7 mph WNW14.0 kmh WNW 14.0 mph22.5 kmh 29.96 in1014.6 mb 0.00 in0.0 mm 0.00 in0.0 mm 0.00 in0.0 mm
03:40 PM 62.3°F16.8°C 50.4°F10.2°C 65% 10.1 mph NW16.3 kmh NW 14.6 mph23.5 kmh 29.96 in1014.6 mb 0.00 in0.0 mm 0.00 in0.0 mm 0.00 in0.0 mm
03:45 PM 62.3°F16.8°C 50.4°F10.2°C 65% 10.4 mph WNW16.7 kmh WNW 16.4 mph26.4 kmh 29.96 in1014.6 mb 0.00 in0.0 mm 0.00 in0.0 mm 0.00 in0.0 mm
03:50 PM 62.2°F16.8°C 50.2°F10.1°C 65% 10.7 mph W17.2 kmh W 16.4 mph26.4 kmh 29.96 in1014.6 mb 0.00 in0.0 mm 0.00 in0.0 mm 0.00 in0.0 mm
03:55 PM 62.0°F16.7°C 50.5°F10.3°C 66% 11.1 mph W17.9 kmh W 16.4 mph26.4 kmh 29.93 in1013.5 mb 0.00 in0.0 mm 0.00 in0.0 mm 0.00 in0.0 mm
04:00 PM 61.8°F16.6°C 50.3°F10.2°C 66% 9.1 mph WNW14.6 kmh WNW 13.4 mph21.6 kmh 29.93 in1013.5 mb 0.00 in0.0 mm 0.00 in0.0 mm 0.00 in0.0 mm
04:05 PM 61.8°F16.6°C 50.3°F10.2°C 66% 8.5 mph WNW13.7 kmh WNW 10.7 mph17.2 kmh 29.93 in1013.5 mb 0.00 in0.0 mm 0.00 in0.0 mm 0.00 in0.0 mm
04:10 PM 61.4°F16.3°C 50.0°F10.0°C 66% 9.1 mph WNW14.6 kmh WNW 13.4 mph21.6 kmh 29.93 in1013.5 mb 0.00 in0.0 mm 0.00 in0.0 mm 0.00 in0.0 mm
04:15 PM 61.3°F16.3°C 50.2°F10.1°C 67% 10.4 mph WNW16.7 kmh WNW 14.6 mph23.5 kmh 29.93 in1013.5 mb 0.00 in0.0 mm 0.00 in0.0 mm 0.00 in0.0 mm
04:20 PM 61.3°F16.3°C 50.2°F10.1°C 67% 8.9 mph W14.3 kmh W 14.6 mph23.5 kmh 29.93 in1013.5 mb 0.00 in0.0 mm 0.00 in0.0 mm 0.00 in0.0 mm
04:25 PM 61.1°F16.2°C 50.0°F10.0°C 67% 8.4 mph W13.5 kmh W 14.9 mph24.0 kmh 29.93 in1013.5 mb 0.00 in0.0 mm 0.00 in0.0 mm 0.00 in0.0 mm
04:30 PM 61.1°F16.2°C 50.4°F10.2°C 68% 7.9 mph WNW12.7 kmh WNW 14.9 mph24.0 kmh 29.93 in1013.5 mb 0.00 in0.0 mm 0.00 in0.0 mm 0.00 in0.0 mm
04:35 PM 60.9°F16.1°C 50.3°F10.2°C 68% 7.9 mph WNW12.7 kmh WNW 13.4 mph21.6 kmh 29.93 in1013.5 mb 0.00 in0.0 mm 0.00 in0.0 mm 0.00 in0.0 mm
04:40 PM 60.7°F15.9°C 50.1°F10.1°C 68% 7.5 mph W12.1 kmh W 13.4 mph21.6 kmh 29.93 in1013.5 mb 0.00 in0.0 mm 0.00 in0.0 mm 0.00 in0.0 mm
04:45 PM 60.7°F15.9°C 50.5°F10.3°C 69% 6.4 mph W10.3 kmh W 11.3 mph18.2 kmh 29.93 in1013.5 mb 0.00 in0.0 mm 0.00 in0.0 mm 0.00 in0.0 mm
04:50 PM 60.7°F15.9°C 50.1°F10.1°C 68% 7.3 mph WNW11.7 kmh WNW 11.3 mph18.2 kmh 29.93 in1013.5 mb 0.00 in0.0 mm 0.00 in0.0 mm 0.00 in0.0 mm
04:55 PM 60.7°F15.9°C 50.5°F10.3°C 69% 8.0 mph WNW12.9 kmh WNW 11.3 mph18.2 kmh 29.96 in1014.6 mb 0.00 in0.0 mm 0.00 in0.0 mm 0.00 in0.0 mm
05:00 PM 60.9°F16.1°C 50.6°F10.3°C 69% 7.9 mph WNW12.7 kmh WNW 12.8 mph20.6 kmh 29.96 in1014.6 mb 0.00 in0.0 mm 0.00 in0.0 mm 0.00 in0.0 mm
05:05 PM 60.9°F16.1°C 50.6°F10.3°C 69% 8.0 mph NW12.9 kmh NW 12.8 mph20.6 kmh 29.96 in1014.6 mb 0.00 in0.0 mm 0.00 in0.0 mm 0.00 in0.0 mm
05:10 PM 60.9°F16.1°C 50.6°F10.3°C 69% 6.6 mph NW10.6 kmh NW 9.5 mph15.3 kmh 29.96 in1014.6 mb 0.00 in0.0 mm 0.00 in0.0 mm 0.00 in0.0 mm
05:15 PM 60.9°F16.1°C 50.6°F10.3°C 69% 6.0 mph NW9.7 kmh NW 9.5 mph15.3 kmh 29.96 in1014.6 mb 0.00 in0.0 mm 0.00 in0.0 mm 0.00 in0.0 mm
05:20 PM 60.9°F16.1°C 50.6°F10.3°C 69% 7.1 mph WNW11.4 kmh WNW 10.7 mph17.2 kmh 29.96 in1014.6 mb 0.00 in0.0 mm 0.00 in0.0 mm 0.00 in0.0 mm
05:25 PM 60.9°F16.1°C 50.6°F10.3°C 69% 7.3 mph W11.7 kmh W 11.9 mph19.2 kmh 29.96 in1014.6 mb 0.00 in0.0 mm 0.00 in0.0 mm 0.00 in0.0 mm
05:30 PM 60.9°F16.1°C 50.6°F10.3°C 69% 7.7 mph WNW12.4 kmh WNW 11.9 mph19.2 kmh 29.96 in1014.6 mb 0.00 in0.0 mm 0.00 in0.0 mm 0.00 in0.0 mm
05:35 PM 60.9°F16.1°C 50.6°F10.3°C 69% 8.3 mph NW13.4 kmh NW 13.4 mph21.6 kmh 29.96 in1014.6 mb 0.00 in0.0 mm 0.00 in0.0 mm 0.00 in0.0 mm
05:40 PM 60.9°F16.1°C 50.6°F10.3°C 69% 7.6 mph NW12.2 kmh NW 13.4 mph21.6 kmh 29.96 in1014.6 mb 0.00 in0.0 mm 0.00 in0.0 mm 0.00 in0.0 mm
05:45 PM 60.9°F16.1°C 50.6°F10.3°C 69% 7.1 mph W11.4 kmh W 13.1 mph21.1 kmh 29.96 in1014.6 mb 0.00 in0.0 mm 0.00 in0.0 mm 0.00 in0.0 mm
05:50 PM 60.9°F16.1°C 50.6°F10.3°C 69% 6.6 mph W10.6 kmh W 13.1 mph21.1 kmh 29.96 in1014.6 mb 0.00 in0.0 mm 0.00 in0.0 mm 0.00 in0.0 mm
05:55 PM 60.7°F15.9°C 50.5°F10.3°C 69% 5.7 mph WNW9.2 kmh WNW 9.8 mph15.8 kmh 29.96 in1014.6 mb 0.00 in0.0 mm 0.00 in0.0 mm 0.00 in0.0 mm
06:00 PM 60.7°F15.9°C 50.5°F10.3°C 69% 6.1 mph WNW9.8 kmh WNW 8.6 mph13.8 kmh 29.96 in1014.6 mb 0.00 in0.0 mm 0.00 in0.0 mm 0.00 in0.0 mm
06:05 PM 60.7°F15.9°C 50.5°F10.3°C 69% 6.8 mph W10.9 kmh W 8.6 mph13.8 kmh 29.96 in1014.6 mb 0.00 in0.0 mm 0.00 in0.0 mm 0.00 in0.0 mm
06:10 PM 60.7°F15.9°C 50.5°F10.3°C 69% 6.1 mph WNW9.8 kmh WNW 8.6 mph13.8 kmh 29.96 in1014.6 mb 0.00 in0.0 mm 0.00 in0.0 mm 0.00 in0.0 mm
06:15 PM 60.5°F15.8°C 50.3°F10.2°C 69% 5.1 mph WNW8.2 kmh WNW 8.6 mph13.8 kmh 29.96 in1014.6 mb 0.00 in0.0 mm 0.00 in0.0 mm 0.00 in0.0 mm
06:20 PM 60.5°F15.8°C 50.3°F10.2°C 69% 5.5 mph W8.9 kmh W 9.8 mph15.8 kmh 29.96 in1014.6 mb 0.00 in0.0 mm 0.00 in0.0 mm 0.00 in0.0 mm
06:25 PM 60.5°F15.8°C 50.7°F10.4°C 70% 7.2 mph WNW11.6 kmh WNW 9.8 mph15.8 kmh 29.96 in1014.6 mb 0.00 in0.0 mm 0.00 in0.0 mm 0.00 in0.0 mm
06:30 PM 60.5°F15.8°C 50.7°F10.4°C 70% 7.2 mph WNW11.6 kmh WNW 9.5 mph15.3 kmh 29.96 in1014.6 mb 0.00 in0.0 mm 0.00 in0.0 mm 0.00 in0.0 mm
06:35 PM 60.3°F15.7°C 50.5°F10.3°C 70% 7.0 mph WNW11.3 kmh WNW 10.7 mph17.2 kmh 29.96 in1014.6 mb 0.00 in0.0 mm 0.00 in0.0 mm 0.00 in0.0 mm
06:40 PM 60.3°F15.7°C 50.5°F10.3°C 70% 6.3 mph NW10.1 kmh NW 10.7 mph17.2 kmh 29.96 in1014.6 mb 0.00 in0.0 mm 0.00 in0.0 mm 0.00 in0.0 mm
06:45 PM 60.2°F15.7°C 50.3°F10.2°C 70% 4.9 mph NW7.9 kmh NW 8.3 mph13.4 kmh 29.96 in1014.6 mb 0.00 in0.0 mm 0.00 in0.0 mm 0.00 in0.0 mm
06:50 PM 60.2°F15.7°C 50.3°F10.2°C 70% 5.3 mph NW8.5 kmh NW 8.3 mph13.4 kmh 29.96 in1014.6 mb 0.00 in0.0 mm 0.00 in0.0 mm 0.00 in0.0 mm
06:55 PM 60.2°F15.7°C 50.3°F10.2°C 70% 6.3 mph W10.1 kmh W 8.3 mph13.4 kmh 29.96 in1014.6 mb 0.00 in0.0 mm 0.00 in0.0 mm 0.00 in0.0 mm
07:00 PM 60.2°F15.7°C 50.3°F10.2°C 70% 6.5 mph WNW10.5 kmh WNW 10.1 mph16.3 kmh 29.96 in1014.6 mb 0.00 in0.0 mm 0.00 in0.0 mm 0.00 in0.0 mm
07:05 PM 60.0°F15.6°C 50.2°F10.1°C 70% 7.1 mph WNW11.4 kmh WNW 10.1 mph16.3 kmh 29.96 in1014.6 mb 0.00 in0.0 mm 0.00 in0.0 mm 0.00 in0.0 mm
07:10 PM 60.0°F15.6°C 50.2°F10.1°C 70% 7.1 mph WNW11.4 kmh WNW 8.6 mph13.8 kmh 29.96 in1014.6 mb 0.00 in0.0 mm 0.00 in0.0 mm 0.00 in0.0 mm
07:15 PM 60.0°F15.6°C 50.2°F10.1°C 70% 7.2 mph W11.6 kmh W 11.3 mph18.2 kmh 29.96 in1014.6 mb 0.00 in0.0 mm 0.00 in0.0 mm 0.00 in0.0 mm
07:20 PM 60.0°F15.6°C 50.2°F10.1°C 70% 6.7 mph W10.8 kmh W 11.3 mph18.2 kmh 29.96 in1014.6 mb 0.00 in0.0 mm 0.00 in0.0 mm 0.00 in0.0 mm
07:25 PM 59.8°F15.4°C 50.4°F10.2°C 71% 5.0 mph WNW8.0 kmh WNW 7.4 mph11.9 kmh 29.99 in1015.6 mb 0.00 in0.0 mm 0.00 in0.0 mm 0.00 in0.0 mm
07:30 PM 59.8°F15.4°C 50.4°F10.2°C 71% 4.4 mph NW7.1 kmh NW 6.2 mph10.0 kmh 29.99 in1015.6 mb 0.00 in0.0 mm 0.00 in0.0 mm 0.00 in0.0 mm
07:35 PM 59.8°F15.4°C 50.4°F10.2°C 71% 5.4 mph WNW8.7 kmh WNW 11.3 mph18.2 kmh 29.99 in1015.6 mb 0.00 in0.0 mm 0.00 in0.0 mm 0.00 in0.0 mm
07:40 PM 59.8°F15.4°C 50.4°F10.2°C 71% 4.7 mph WNW7.6 kmh WNW 7.4 mph11.9 kmh 29.99 in1015.6 mb 0.00 in0.0 mm 0.00 in0.0 mm 0.00 in0.0 mm
07:45 PM 59.8°F15.4°C 50.4°F10.2°C 71% 4.3 mph WNW6.9 kmh WNW 7.7 mph12.4 kmh 29.99 in1015.6 mb 0.00 in0.0 mm 0.00 in0.0 mm 0.00 in0.0 mm
07:50 PM 59.6°F15.3°C 50.2°F10.1°C 71% 4.9 mph NW7.9 kmh NW 7.7 mph12.4 kmh 29.99 in1015.6 mb 0.00 in0.0 mm 0.00 in0.0 mm 0.00 in0.0 mm
07:55 PM 59.6°F15.3°C 50.6°F10.3°C 72% 4.5 mph NW7.2 kmh NW 7.7 mph12.4 kmh 29.99 in1015.6 mb 0.00 in0.0 mm 0.00 in0.0 mm 0.00 in0.0 mm
08:00 PM 59.6°F15.3°C 50.6°F10.3°C 72% 4.6 mph NW7.4 kmh NW 8.0 mph12.9 kmh 29.99 in1015.6 mb 0.00 in0.0 mm 0.00 in0.0 mm 0.00 in0.0 mm
08:05 PM 59.6°F15.3°C 50.6°F10.3°C 72% 4.6 mph NW7.4 kmh NW 8.0 mph12.9 kmh 29.99 in1015.6 mb 0.00 in0.0 mm 0.00 in0.0 mm 0.00 in0.0 mm
08:10 PM 59.5°F15.3°C 50.4°F10.2°C 72% 4.6 mph WNW7.4 kmh WNW 7.7 mph12.4 kmh 29.99 in1015.6 mb 0.00 in0.0 mm 0.00 in0.0 mm 0.00 in0.0 mm
08:15 PM 59.5°F15.3°C 50.4°F10.2°C 72% 4.7 mph W7.6 kmh W 7.1 mph11.4 kmh 29.99 in1015.6 mb 0.00 in0.0 mm 0.00 in0.0 mm 0.00 in0.0 mm
08:20 PM 59.5°F15.3°C 50.8°F10.4°C 73% 5.1 mph W8.2 kmh W 7.1 mph11.4 kmh 29.99 in1015.6 mb 0.00 in0.0 mm 0.00 in0.0 mm 0.00 in0.0 mm
08:25 PM 59.5°F15.3°C 50.8°F10.4°C 73% 5.4 mph WNW8.7 kmh WNW 10.1 mph16.3 kmh 29.99 in1015.6 mb 0.00 in0.0 mm 0.00 in0.0 mm 0.00 in0.0 mm
08:30 PM 59.5°F15.3°C 50.8°F10.4°C 73% 4.7 mph NW7.6 kmh NW 10.1 mph16.3 kmh 29.99 in1015.6 mb 0.00 in0.0 mm 0.00 in0.0 mm 0.00 in0.0 mm
08:35 PM 59.5°F15.3°C 50.8°F10.4°C 73% 4.2 mph NW6.8 kmh NW 7.7 mph12.4 kmh 29.99 in1015.6 mb 0.00 in0.0 mm 0.00 in0.0 mm 0.00 in0.0 mm
08:40 PM 59.5°F15.3°C 50.8°F10.4°C 73% 4.1 mph NW6.6 kmh NW 7.7 mph12.4 kmh 29.99 in1015.6 mb 0.00 in0.0 mm 0.00 in0.0 mm 0.00 in0.0 mm
08:45 PM 59.5°F15.3°C 50.8°F10.4°C 73% 3.0 mph NW4.8 kmh NW 5.7 mph9.2 kmh 29.99 in1015.6 mb 0.00 in0.0 mm 0.00 in0.0 mm 0.00 in0.0 mm
08:50 PM 59.5°F15.3°C 50.8°F10.4°C 73% 3.2 mph WNW5.1 kmh WNW 5.4 mph8.7 kmh 29.99 in1015.6 mb 0.00 in0.0 mm 0.00 in0.0 mm 0.00 in0.0 mm
08:55 PM 59.5°F15.3°C 50.8°F10.4°C 73% 3.2 mph NW5.1 kmh NW 5.4 mph8.7 kmh 29.99 in1015.6 mb 0.00 in0.0 mm 0.00 in0.0 mm 0.00 in0.0 mm
09:00 PM 59.5°F15.3°C 50.8°F10.4°C 73% 3.0 mph NNW4.8 kmh NNW 5.1 mph8.2 kmh 29.99 in1015.6 mb 0.00 in0.0 mm 0.00 in0.0 mm 0.00 in0.0 mm
09:05 PM 59.5°F15.3°C 50.8°F10.4°C 73% 3.5 mph N5.6 kmh N 5.7 mph9.2 kmh 29.99 in1015.6 mb 0.00 in0.0 mm 0.00 in0.0 mm 0.00 in0.0 mm
09:10 PM 59.3°F15.2°C 50.6°F10.3°C 73% 3.7 mph N6.0 kmh N 5.7 mph9.2 kmh 29.99 in1015.6 mb 0.00 in0.0 mm 0.00 in0.0 mm 0.00 in0.0 mm
09:15 PM 59.3°F15.2°C 50.6°F10.3°C 73% 2.8 mph N4.5 kmh N 4.8 mph7.7 kmh 29.99 in1015.6 mb 0.00 in0.0 mm 0.00 in0.0 mm 0.00 in0.0 mm
09:20 PM 59.3°F15.2°C 50.6°F10.3°C 73% 2.2 mph N3.5 kmh N 4.8 mph7.7 kmh 29.99 in1015.6 mb 0.00 in0.0 mm 0.00 in0.0 mm 0.00 in0.0 mm
09:25 PM 59.1°F15.1°C 50.4°F10.2°C 73% 2.4 mph NNW3.9 kmh NNW 3.6 mph5.8 kmh 29.99 in1015.6 mb 0.00 in0.0 mm 0.00 in0.0 mm 0.00 in0.0 mm
09:30 PM 59.1°F15.1°C 50.1°F10.1°C 72% 2.8 mph NNW4.5 kmh NNW 3.6 mph5.8 kmh 29.99 in1015.6 mb 0.00 in0.0 mm 0.00 in0.0 mm 0.00 in0.0 mm
09:35 PM 58.9°F14.9°C 49.5°F9.7°C 71% 3.2 mph NNW5.1 kmh NNW 4.8 mph7.7 kmh 29.99 in1015.6 mb 0.00 in0.0 mm 0.00 in0.0 mm 0.00 in0.0 mm
09:40 PM 58.9°F14.9°C 49.5°F9.7°C 71% 3.2 mph NW5.1 kmh NW 4.8 mph7.7 kmh 29.99 in1015.6 mb 0.00 in0.0 mm 0.00 in0.0 mm 0.00 in0.0 mm
09:45 PM 58.9°F14.9°C 49.5°F9.7°C 71% 1.4 mph NW2.3 kmh NW 4.8 mph7.7 kmh 29.99 in1015.6 mb 0.00 in0.0 mm 0.00 in0.0 mm 0.00 in0.0 mm
09:50 PM 58.9°F14.9°C 49.5°F9.7°C 71% 0.4 mph WNW0.6 kmh WNW 1.8 mph2.9 kmh 29.99 in1015.6 mb 0.00 in0.0 mm 0.00 in0.0 mm 0.00 in0.0 mm
09:55 PM 58.7°F14.8°C 49.3°F9.6°C 71% 1.0 mph WNW1.6 kmh WNW 3.3 mph5.3 kmh 29.99 in1015.6 mb 0.00 in0.0 mm 0.00 in0.0 mm 0.00 in0.0 mm
10:00 PM 58.7°F14.8°C 49.3°F9.6°C 71% 1.0 mph W1.6 kmh W 3.3 mph5.3 kmh 29.99 in1015.6 mb 0.00 in0.0 mm 0.00 in0.0 mm 0.00 in0.0 mm
10:05 PM 58.7°F14.8°C 49.3°F9.6°C 71% 1.1 mph WNW1.8 kmh WNW 3.3 mph5.3 kmh 29.99 in1015.6 mb 0.00 in0.0 mm 0.00 in0.0 mm 0.00 in0.0 mm
10:10 PM 58.7°F14.8°C 49.3°F9.6°C 71% 1.4 mph WNW2.3 kmh WNW 3.3 mph5.3 kmh 29.99 in1015.6 mb 0.00 in0.0 mm 0.00 in0.0 mm 0.00 in0.0 mm
10:15 PM 58.5°F14.7°C 48.8°F9.3°C 70% 0.5 mph NW0.8 kmh NW 1.8 mph2.9 kmh 29.99 in1015.6 mb 0.00 in0.0 mm 0.00 in0.0 mm 0.00 in0.0 mm
10:20 PM 58.5°F14.7°C 48.8°F9.3°C 70% 0.6 mph WNW1.0 kmh WNW 1.8 mph2.9 kmh 29.99 in1015.6 mb 0.00 in0.0 mm 0.00 in0.0 mm 0.00 in0.0 mm
10:25 PM 58.5°F14.7°C 48.8°F9.3°C 70% 1.0 mph NW1.6 kmh NW 2.7 mph4.3 kmh 30.02 in1016.6 mb 0.00 in0.0 mm 0.00 in0.0 mm 0.00 in0.0 mm
10:30 PM 58.5°F14.7°C 48.8°F9.3°C 70% 1.8 mph WNW2.9 kmh WNW 3.9 mph6.3 kmh 30.02 in1016.6 mb 0.00 in0.0 mm 0.00 in0.0 mm 0.00 in0.0 mm
10:35 PM 58.5°F14.7°C 48.8°F9.3°C 70% 1.9 mph WNW3.1 kmh WNW 3.9 mph6.3 kmh 30.02 in1016.6 mb 0.00 in0.0 mm 0.00 in0.0 mm 0.00 in0.0 mm
10:40 PM 58.5°F14.7°C 48.8°F9.3°C 70% 0.6 mph WNW1.0 kmh WNW 3.6 mph5.8 kmh 30.02 in1016.6 mb 0.00 in0.0 mm 0.00 in0.0 mm 0.00 in0.0 mm
10:45 PM 58.5°F14.7°C 48.8°F9.3°C 70% 0.3 mph WNW0.5 kmh WNW 1.8 mph2.9 kmh 30.02 in1016.6 mb 0.00 in0.0 mm 0.00 in0.0 mm 0.00 in0.0 mm
10:50 PM 58.5°F14.7°C 48.8°F9.3°C 70% 1.1 mph NW1.8 kmh NW 5.1 mph8.2 kmh 30.02 in1016.6 mb 0.00 in0.0 mm 0.00 in0.0 mm 0.00 in0.0 mm
10:55 PM 58.5°F14.7°C 48.8°F9.3°C 70% 1.8 mph NW2.9 kmh NW 5.1 mph8.2 kmh 30.02 in1016.6 mb 0.00 in0.0 mm 0.00 in0.0 mm 0.00 in0.0 mm
11:00 PM 58.5°F14.7°C 48.8°F9.3°C 70% 0.7 mph NW1.1 kmh NW 3.0 mph4.8 kmh 30.02 in1016.6 mb 0.00 in0.0 mm 0.00 in0.0 mm 0.00 in0.0 mm
11:05 PM 58.5°F14.7°C 48.8°F9.3°C 70% 0.7 mph NW1.1 kmh NW 3.6 mph5.8 kmh 30.02 in1016.6 mb 0.00 in0.0 mm 0.00 in0.0 mm 0.00 in0.0 mm
11:10 PM 58.5°F14.7°C 48.8°F9.3°C 70% 0.7 mph NW1.1 kmh NW 3.6 mph5.8 kmh 30.02 in1016.6 mb 0.00 in0.0 mm 0.00 in0.0 mm 0.00 in0.0 mm
11:15 PM 58.4°F14.7°C 48.6°F9.2°C 70% 0.2 mph NW0.3 kmh NW 3.0 mph4.8 kmh 30.02 in1016.6 mb 0.00 in0.0 mm 0.00 in0.0 mm 0.00 in0.0 mm
11:20 PM 58.4°F14.7°C 48.6°F9.2°C 70% Calm Calm -- 30.02 in1016.6 mb 0.00 in0.0 mm 0.00 in0.0 mm 0.00 in0.0 mm
11:25 PM 58.2°F14.6°C 48.4°F9.1°C 70% Calm Calm -- 30.02 in1016.6 mb 0.00 in0.0 mm 0.00 in0.0 mm 0.00 in0.0 mm
11:30 PM 58.0°F14.4°C 48.3°F9.1°C 70% Calm Calm -- 30.02 in1016.6 mb 0.00 in0.0 mm 0.00 in0.0 mm 0.00 in0.0 mm
11:35 PM 58.0°F14.4°C 48.7°F9.3°C 71% Calm Calm -- 30.02 in1016.6 mb 0.00 in0.0 mm 0.00 in0.0 mm 0.00 in0.0 mm
11:40 PM 57.8°F14.3°C 48.5°F9.2°C 71% 0.3 mph SW0.5 kmh SW 2.7 mph4.3 kmh 30.02 in1016.6 mb 0.00 in0.0 mm 0.00 in0.0 mm 0.00 in0.0 mm
11:45 PM 57.8°F14.3°C 48.5°F9.2°C 71% 1.1 mph SSW1.8 kmh SSW 3.9 mph6.3 kmh 30.02 in1016.6 mb 0.00 in0.0 mm 0.00 in0.0 mm 0.00 in0.0 mm
11:50 PM 58.0°F14.4°C 49.0°F9.4°C 72% 2.3 mph S3.7 kmh S 4.2 mph6.8 kmh 30.02 in1016.6 mb 0.00 in0.0 mm 0.00 in0.0 mm 0.00 in0.0 mm
11:55 PM 58.0°F14.4°C 49.0°F9.4°C 72% 2.4 mph S3.9 kmh S 4.2 mph6.8 kmh 30.02 in1016.6 mb 0.00 in0.0 mm 0.00 in0.0 mm 0.00 in0.0 mm